Darstellungsparameter: Aktuell verwendete Einstellungen:
Skalierung der Graphiken ... ?
xyx+y,   Skalierungsfaktor:      Skalierung: Modus: x, Faktor: 1
Darstellungszeitraum ... ?
Vom - - bis: - -   Zeitraum: 08.01.2011 - 14.01.2011
Min/Max/Avg-Anzeige ... ?
Zeige MMA aktuell
Zeige MMA Monat
Zeige MMA alles
Zeige --A aktuell
Zeige --A Monat
Zeige --A alles
Keine MMA-Anzeige
MMA:
Keine MMA-Graphiken
MMA-Basis: 08.01.2011 - 14.01.2011
Quicknavigation für Darstellung... ?
Tage:      1T, 2T, 3T, 5T -1T -2T -3T -5T +1T +2T +3T +5T
Wochen: 1W, 2W, 3W -1W -2W -3W +1W +2W +3W
Monate: 1M, 3M, 6M -1M -3M -6M +1M +3M +6M
Jahre:    1J, 3J, 5J, 10J -1J -3J -5J -10J +1J +3J +5J +10J
Nutze für die Darstellung ... ?
Originaldaten oder Mittelwerte auf ...
Stundenbasis Tagesbasis Wochenbasis
Monatsbasis Jahresbasis      Datenbasis: Original-Daten
Darstellen als:
Statistik (Auto) Statistik J:M      Darstellung:
Zur Graphik,    zurück zur Übersicht aller Sensoren.
 
Tabellarische Datenbersicht: ?
 
Sensor: Nr:Datum:Temp:Abs-Feuchte:Windchill:Wind:
Aussen-T/F 1 08-01-2011 00:10:03 9.2 C 7.77 g/m*3 9.2 C 0 km/h
2 08-01-2011 00:22:03 8.9 C 7.62 g/m*3 8.9 C 0 km/h
3 08-01-2011 00:34:03 8.7 C 7.52 g/m*3 8.7 C 0 km/h
4 08-01-2011 00:46:03 8.3 C 7.33 g/m*3 8.3 C 0 km/h
5 08-01-2011 00:58:03 8.1 C 7.24 g/m*3 8.1 C 0 km/h
6 08-01-2011 01:10:03 8 C 7.28 g/m*3 8 C 0 km/h
7 08-01-2011 01:22:03 7.7 C 7.22 g/m*3 7.7 C 0 km/h
8 08-01-2011 01:34:03 7.5 C 7.12 g/m*3 7.5 C 0 km/h
9 08-01-2011 01:46:03 7.1 C 6.94 g/m*3 7.1 C 0 km/h
10 08-01-2011 01:58:04 7 C 6.9 g/m*3 7 C 0 km/h
11 08-01-2011 02:10:04 6.9 C 6.93 g/m*3 6.9 C 0 km/h
12 08-01-2011 02:22:04 6.6 C 6.79 g/m*3 6.6 C 0 km/h
13 08-01-2011 02:34:04 6.7 C 6.91 g/m*3 6.7 C 0 km/h
14 08-01-2011 02:46:04 6.6 C 6.87 g/m*3 6.6 C 0 km/h
15 08-01-2011 02:58:04 6.8 C 6.96 g/m*3 6.8 C 0 km/h
16 08-01-2011 03:10:04 7 C 7.05 g/m*3 7 C 0 km/h
17 08-01-2011 03:22:04 7.9 C 7.56 g/m*3 7.9 C 0 km/h
18 08-01-2011 03:34:04 8.1 C 7.57 g/m*3 8.1 C 0 km/h
19 08-01-2011 03:46:04 8.5 C 7.77 g/m*3 8.5 C 0 km/h
20 08-01-2011 03:58:04 8.1 C 7.57 g/m*3 8.1 C 0 km/h
21 08-01-2011 04:10:04 7.9 C 7.56 g/m*3 7.9 C 0 km/h
22 08-01-2011 04:22:04 8.2 C 7.62 g/m*3 8.2 C 0 km/h
23 08-01-2011 04:34:04 8.1 C 7.57 g/m*3 8.1 C 0 km/h
24 08-01-2011 04:46:04 7.9 C 7.56 g/m*3 7.9 C 0 km/h
25 08-01-2011 04:58:04 7.3 C 7.27 g/m*3 7.3 C 0 km/h
Sensor: Nr:Datum:Temp:Abs-Feuchte:Windchill:Wind:
Aussen-T/F 26 08-01-2011 05:10:04 7.5 C 7.36 g/m*3 7.5 C 0 km/h
27 08-01-2011 05:22:04 8 C 7.52 g/m*3 8 C 0 km/h
28 08-01-2011 05:34:04 7.9 C 7.56 g/m*3 7.9 C 0 km/h
29 08-01-2011 05:46:04 8.1 C 7.66 g/m*3 8.1 C 0 km/h
30 08-01-2011 05:58:05 8.2 C 7.7 g/m*3 8.2 C 0 km/h
31 08-01-2011 06:10:05 8.2 C 7.7 g/m*3 8.2 C 0 km/h
32 08-01-2011 06:22:05 8.2 C 7.7 g/m*3 8.2 C 0 km/h
33 08-01-2011 06:34:05 8 C 7.61 g/m*3 8 C 0 km/h
34 08-01-2011 06:46:05 7.8 C 7.59 g/m*3 7.8 C 0 km/h
35 08-01-2011 06:58:05 7.7 C 7.54 g/m*3 7.7 C 0 km/h
36 08-01-2011 07:10:05 8 C 7.61 g/m*3 8 C 0 km/h
37 08-01-2011 07:22:05 8 C 7.61 g/m*3 8 C 0 km/h
38 08-01-2011 07:34:05 7.9 C 7.64 g/m*3 7.9 C 0 km/h
39 08-01-2011 07:46:05 8.3 C 7.75 g/m*3 8.3 C 0 km/h
40 08-01-2011 07:58:05 8.6 C 7.91 g/m*3 8.6 C 0 km/h
41 08-01-2011 08:10:05 8.5 C 7.85 g/m*3 8.5 C 0 km/h
42 08-01-2011 08:22:05 8.2 C 7.7 g/m*3 8.2 C 0 km/h
43 08-01-2011 08:34:05 7.9 C 7.64 g/m*3 7.9 C 0 km/h
44 08-01-2011 08:46:02 8.3 C 7.75 g/m*3 8.3 C 0 km/h
45 08-01-2011 08:58:02 8.8 C 8.09 g/m*3 8.8 C 0 km/h
46 08-01-2011 09:10:02 8.9 C 8.06 g/m*3 8.9 C 0 km/h
47 08-01-2011 09:22:02 9.1 C 8.07 g/m*3 9.1 C 0 km/h
48 08-01-2011 09:34:02 8.7 C 7.96 g/m*3 8.7 C 0 km/h
49 08-01-2011 09:46:02 8.5 C 7.85 g/m*3 8.5 C 0 km/h
50 08-01-2011 09:58:02 8.3 C 7.75 g/m*3 8.3 C 0 km/h
Sensor: Nr:Datum:Temp:Abs-Feuchte:Windchill:Wind:
Aussen-T/F 51 08-01-2011 10:10:01 8 C 7.61 g/m*3 8 C 0 km/h
52 08-01-2011 10:22:02 7.7 C 7.46 g/m*3 7.7 C 0 km/h
53 08-01-2011 10:34:01 7.6 C 7.41 g/m*3 7.6 C 0 km/h
54 08-01-2011 10:46:02 7.6 C 7.41 g/m*3 7.6 C 0 km/h
55 08-01-2011 10:58:03 8 C 7.52 g/m*3 8 C 0 km/h
56 08-01-2011 11:10:02 8.6 C 7.82 g/m*3 8.6 C 0 km/h
57 08-01-2011 11:22:02 9.3 C 8.09 g/m*3 9.3 C 0 km/h
58 08-01-2011 11:34:03 10.2 C 8.09 g/m*3 10.2 C 0 km/h
59 08-01-2011 11:46:02 10.9 C 7.96 g/m*3 10.9 C 0 km/h
60 08-01-2011 11:58:02 12 C 7.25 g/m*3 12 C 0 km/h
61 08-01-2011 12:10:02 12.1 C 6.97 g/m*3 12.1 C 0 km/h
62 08-01-2011 12:22:01 12.7 C 6.57 g/m*3 12.7 C 0 km/h
63 08-01-2011 12:34:02 13.1 C 6.39 g/m*3 13.1 C 0 km/h
64 08-01-2011 12:46:02 13.8 C 6.55 g/m*3 13.8 C 0 km/h
65 08-01-2011 12:58:02 13.8 C 6.43 g/m*3 13.8 C 0 km/h
66 08-01-2011 13:10:02 13.9 C 6.35 g/m*3 13.9 C 0 km/h
67 08-01-2011 13:22:01 14 C 6.27 g/m*3 14 C 0 km/h
68 08-01-2011 13:34:02 14.1 C 5.95 g/m*3 14.1 C 0 km/h
69 08-01-2011 13:46:02 14.4 C 5.93 g/m*3 14.4 C 0 km/h
70 08-01-2011 13:58:02 14.5 C 5.85 g/m*3 14.5 C 0 km/h
71 08-01-2011 14:10:02 14.5 C 5.85 g/m*3 14.5 C 0 km/h
72 08-01-2011 14:22:02 14.7 C 5.79 g/m*3 14.7 C 0 km/h
73 08-01-2011 14:34:02 14.5 C 5.85 g/m*3 14.5 C 0 km/h
74 08-01-2011 14:46:02 14.3 C 5.9 g/m*3 14.3 C 0 km/h
75 08-01-2011 14:58:02 14 C 5.91 g/m*3 14 C 0 km/h
Sensor: Nr:Datum:Temp:Abs-Feuchte:Windchill:Wind:
Aussen-T/F 76 08-01-2011 15:10:02 14.3 C 5.9 g/m*3 14.3 C 0 km/h
77 08-01-2011 15:22:02 14 C 6.03 g/m*3 14 C 0 km/h
78 08-01-2011 15:34:01 14 C 5.79 g/m*3 14 C 0 km/h
79 08-01-2011 15:46:02 14.2 C 5.74 g/m*3 14.2 C 0 km/h
80 08-01-2011 15:58:02 14.1 C 5.83 g/m*3 14.1 C 0 km/h
81 08-01-2011 16:10:01 14 C 5.79 g/m*3 14 C 0 km/h
82 08-01-2011 16:22:02 13.8 C 5.96 g/m*3 13.8 C 0 km/h
83 08-01-2011 16:34:02 12.8 C 6.05 g/m*3 12.8 C 0 km/h
84 08-01-2011 16:46:02 13.7 C 5.8 g/m*3 13.7 C 0 km/h
85 08-01-2011 16:58:02 13.7 C 5.68 g/m*3 13.7 C 0 km/h
86 08-01-2011 17:10:02 13.2 C 5.86 g/m*3 13.2 C 0 km/h
87 08-01-2011 17:22:02 13.4 C 5.93 g/m*3 13.4 C 0 km/h
88 08-01-2011 17:34:02 13.3 C 6.01 g/m*3 13.3 C 0 km/h
89 08-01-2011 17:46:01 13.5 C 5.85 g/m*3 13.5 C 0 km/h
90 08-01-2011 17:58:01 13 C 5.9 g/m*3 13 C 0 km/h
91 08-01-2011 18:10:02 13.5 C 5.97 g/m*3 13.5 C 0 km/h
92 08-01-2011 18:22:01 13.2 C 5.86 g/m*3 13.2 C 0 km/h
93 08-01-2011 18:34:01 13.7 C 5.8 g/m*3 13.7 C 0 km/h
94 08-01-2011 18:46:01 13.5 C 5.85 g/m*3 13.5 C 0 km/h
95 08-01-2011 18:58:01 13.3 C 5.89 g/m*3 13.3 C 0 km/h
96 08-01-2011 19:10:02 13 C 6.01 g/m*3 13 C 0 km/h
97 08-01-2011 19:22:01 13.1 C 5.93 g/m*3 13.1 C 0 km/h
98 08-01-2011 19:34:01 13.3 C 5.89 g/m*3 13.3 C 0 km/h
99 08-01-2011 19:46:01 13.2 C 5.86 g/m*3 13.2 C 0 km/h
100 08-01-2011 19:58:01 13.2 C 5.97 g/m*3 13.2 C 0 km/h
Sensor: Nr:Datum:Temp:Abs-Feuchte:Windchill:Wind:
Aussen-T/F 101 08-01-2011 20:10:02 13.2 C 5.97 g/m*3 13.2 C 0 km/h
102 08-01-2011 20:22:02 12.7 C 6.12 g/m*3 12.7 C 0 km/h
103 08-01-2011 20:34:01 11.8 C 6.53 g/m*3 11.8 C 0 km/h
104 08-01-2011 20:46:02 12.1 C 6.54 g/m*3 12.1 C 0 km/h
105 08-01-2011 20:58:02 11.8 C 6.53 g/m*3 11.8 C 0 km/h
106 08-01-2011 21:10:01 11.4 C 6.57 g/m*3 11.4 C 0 km/h
107 08-01-2011 21:22:02 11.8 C 6.63 g/m*3 11.8 C 0 km/h
108 08-01-2011 21:34:01 12.2 C 6.58 g/m*3 12.2 C 0 km/h
109 08-01-2011 21:46:02 12.5 C 6.82 g/m*3 12.5 C 0 km/h
110 08-01-2011 21:58:02 12.3 C 6.41 g/m*3 12.3 C 0 km/h
111 08-01-2011 22:10:03 12.5 C 6.38 g/m*3 12.5 C 0 km/h
112 08-01-2011 22:22:02 12.3 C 6.3 g/m*3 12.3 C 0 km/h
113 08-01-2011 22:35:03 11.8 C 6.63 g/m*3 11.8 C 0 km/h
114 08-01-2011 22:47:03 12.2 C 6.58 g/m*3 12.2 C 0 km/h
115 08-01-2011 22:59:03 10.9 C 6.86 g/m*3 10.9 C 0 km/h
116 08-01-2011 23:11:03 10.5 C 6.98 g/m*3 10.5 C 0 km/h
117 08-01-2011 23:23:03 10.6 C 7.12 g/m*3 10.6 C 0 km/h
118 08-01-2011 23:35:03 10.3 C 7.18 g/m*3 10.3 C 0 km/h
119 08-01-2011 23:47:03 10.2 C 7.14 g/m*3 10.2 C 0 km/h
120 08-01-2011 23:59:03 10 C 7.24 g/m*3 10 C 0 km/h
121 09-01-2011 00:11:03 9.8 C 7.42 g/m*3 9.8 C 0 km/h
122 09-01-2011 00:23:04 9.7 C 7.56 g/m*3 9.7 C 0 km/h
123 09-01-2011 00:35:04 9.6 C 7.69 g/m*3 9.6 C 0 km/h
124 09-01-2011 00:47:04 9.6 C 7.79 g/m*3 9.6 C 0 km/h
125 09-01-2011 00:59:04 9.5 C 7.83 g/m*3 9.5 C 0 km/h
Sensor: Nr:Datum:Temp:Abs-Feuchte:Windchill:Wind:
Aussen-T/F 126 09-01-2011 01:11:04 9.5 C 7.92 g/m*3 9.5 C 0 km/h
127 09-01-2011 01:23:04 9.7 C 8.02 g/m*3 9.7 C 0 km/h
128 09-01-2011 01:35:04 9.6 C 7.97 g/m*3 9.6 C 0 km/h
129 09-01-2011 01:47:04 9.7 C 8.02 g/m*3 9.7 C 0 km/h
130 09-01-2011 01:59:04 9.6 C 7.97 g/m*3 9.6 C 0 km/h
131 09-01-2011 02:11:04 9.8 C 8.07 g/m*3 9.8 C 0 km/h
132 09-01-2011 02:23:04 10 C 7.99 g/m*3 10 C 0 km/h
133 09-01-2011 02:35:04 9.8 C 7.98 g/m*3 9.8 C 0 km/h
134 09-01-2011 02:47:04 9.7 C 7.84 g/m*3 9.7 C 0 km/h
135 09-01-2011 02:59:04 9.6 C 7.79 g/m*3 9.6 C 0 km/h
136 09-01-2011 03:11:04 9.5 C 7.83 g/m*3 9.5 C 0 km/h
137 09-01-2011 03:23:04 9.4 C 7.78 g/m*3 9.4 C 0 km/h
138 09-01-2011 03:35:04 9.2 C 7.68 g/m*3 9.2 C 0 km/h
139 09-01-2011 03:47:04 9.2 C 7.77 g/m*3 9.2 C 0 km/h
140 09-01-2011 03:59:04 9.3 C 7.82 g/m*3 9.3 C 0 km/h
141 09-01-2011 04:11:04 9.7 C 7.93 g/m*3 9.7 C 0 km/h
142 09-01-2011 04:23:05 10.8 C 7.91 g/m*3 10.8 C 0 km/h
143 09-01-2011 04:35:05 11 C 7.51 g/m*3 11 C 0 km/h
144 09-01-2011 04:47:05 11.5 C 7.23 g/m*3 11.5 C 0 km/h
145 09-01-2011 04:59:05 11.6 C 7.28 g/m*3 11.6 C 0 km/h
146 09-01-2011 05:11:05 11.8 C 7.26 g/m*3 11.8 C 0 km/h
147 09-01-2011 05:23:05 11.5 C 7.23 g/m*3 11.5 C 0 km/h
148 09-01-2011 05:35:05 11.7 C 7.22 g/m*3 11.7 C 0 km/h
149 09-01-2011 05:47:05 11.1 C 7.15 g/m*3 11.1 C 0 km/h
150 09-01-2011 05:59:05 9.3 C 6.65 g/m*3 9.3 C 0 km/h
Sensor: Nr:Datum:Temp:Abs-Feuchte:Windchill:Wind:
Aussen-T/F 151 09-01-2011 06:11:05 8 C 6.45 g/m*3 8 C 0 km/h
152 09-01-2011 06:23:05 7.5 C 6.48 g/m*3 7.5 C 0 km/h
153 09-01-2011 06:35:05 7.2 C 6.52 g/m*3 7.2 C 0 km/h
154 09-01-2011 06:47:05 7 C 6.59 g/m*3 7 C 0 km/h
155 09-01-2011 06:59:05 6.8 C 6.65 g/m*3 6.8 C 0 km/h
156 09-01-2011 07:11:05 6.6 C 6.57 g/m*3 6.6 C 0 km/h
157 09-01-2011 07:23:05 6.4 C 6.48 g/m*3 6.4 C 0 km/h
158 09-01-2011 07:35:05 6.2 C 6.4 g/m*3 6.2 C 0 km/h
159 09-01-2011 07:47:05 5.8 C 6.3 g/m*3 5.8 C 0 km/h
160 09-01-2011 07:59:05 5.6 C 6.22 g/m*3 5.6 C 0 km/h
161 09-01-2011 08:11:05 5.5 C 6.18 g/m*3 5.5 C 0 km/h
162 09-01-2011 08:23:05 5.3 C 6.1 g/m*3 5.3 C 0 km/h
163 09-01-2011 08:35:06 5.3 C 6.1 g/m*3 5.3 C 0 km/h
164 09-01-2011 08:47:02 5 C 5.98 g/m*3 5 C 0 km/h
165 09-01-2011 08:59:03 4.7 C 5.86 g/m*3 4.7 C 0 km/h
166 09-01-2011 09:11:02 4.3 C 5.64 g/m*3 4.3 C 0 km/h
167 09-01-2011 09:23:02 4.3 C 5.58 g/m*3 4.3 C 0 km/h
168 09-01-2011 09:35:03 4 C 5.47 g/m*3 4 C 0 km/h
169 09-01-2011 09:47:01 3.8 C 5.46 g/m*3 3.8 C 0 km/h
170 09-01-2011 09:59:01 3.5 C 5.35 g/m*3 3.5 C 0 km/h
171 09-01-2011 10:11:02 3 C 5.17 g/m*3 3 C 0 km/h
172 09-01-2011 10:23:01 2.9 C 5.14 g/m*3 2.9 C 0 km/h
173 09-01-2011 10:35:01 2.8 C 5.1 g/m*3 2.8 C 0 km/h
174 09-01-2011 10:47:01 3 C 5.17 g/m*3 3 C 0 km/h
175 09-01-2011 10:59:01 3.4 C 5.31 g/m*3 3.4 C 0 km/h
Sensor: Nr:Datum:Temp:Abs-Feuchte:Windchill:Wind:
Aussen-T/F 176 09-01-2011 11:11:01 3.9 C 5.56 g/m*3 3.9 C 0 km/h
177 09-01-2011 11:23:02 4.1 C 5.5 g/m*3 4.1 C 0 km/h
178 09-01-2011 11:35:01 4.1 C 5.44 g/m*3 4.1 C 0 km/h
179 09-01-2011 11:47:02 4.1 C 5.38 g/m*3 4.1 C 0 km/h
180 09-01-2011 11:59:02 4.3 C 5.45 g/m*3 4.3 C 0 km/h
181 09-01-2011 12:11:01 4.3 C 5.38 g/m*3 4.3 C 0 km/h
182 09-01-2011 12:23:02 4.5 C 5.39 g/m*3 4.5 C 0 km/h
183 09-01-2011 12:35:01 4.6 C 5.36 g/m*3 4.6 C 0 km/h
184 09-01-2011 12:47:02 4.8 C 5.43 g/m*3 4.8 C 0 km/h
185 09-01-2011 12:59:02 4.6 C 5.36 g/m*3 4.6 C 0 km/h
186 09-01-2011 13:11:02 4.8 C 5.43 g/m*3 4.8 C 0 km/h
187 09-01-2011 13:23:02 5.1 C 5.34 g/m*3 5.1 C 0 km/h
188 09-01-2011 13:35:02 5.1 C 5.34 g/m*3 5.1 C 0 km/h
189 09-01-2011 13:47:02 5.2 C 5.23 g/m*3 5.2 C 0 km/h
190 09-01-2011 13:59:02 5.2 C 5.3 g/m*3 5.2 C 0 km/h
191 09-01-2011 14:11:01 5.2 C 5.23 g/m*3 5.2 C 0 km/h
192 09-01-2011 14:23:01 5.3 C 5.27 g/m*3 5.3 C 0 km/h
193 09-01-2011 14:35:02 5.3 C 5.27 g/m*3 5.3 C 0 km/h
194 09-01-2011 14:47:02 5.2 C 5.3 g/m*3 5.2 C 0 km/h
195 09-01-2011 14:59:02 5.2 C 5.23 g/m*3 5.2 C 0 km/h
196 09-01-2011 15:11:02 5 C 5.37 g/m*3 5 C 0 km/h
197 09-01-2011 15:23:02 4.8 C 5.5 g/m*3 4.8 C 0 km/h
198 09-01-2011 15:35:02 4.6 C 5.49 g/m*3 4.6 C 0 km/h
199 09-01-2011 15:47:02 4.4 C 5.42 g/m*3 4.4 C 0 km/h
200 09-01-2011 15:59:02 4.1 C 5.38 g/m*3 4.1 C 0 km/h
Sensor: Nr:Datum:Temp:Abs-Feuchte:Windchill:Wind:
Aussen-T/F 201 09-01-2011 16:11:02 3.8 C 5.4 g/m*3 3.8 C 0 km/h
202 09-01-2011 16:23:02 3.4 C 5.31 g/m*3 3.4 C 0 km/h
203 09-01-2011 16:35:02 3.2 C 5.24 g/m*3 3.2 C 0 km/h
204 09-01-2011 16:47:02 3 C 5.23 g/m*3 3 C 0 km/h
205 09-01-2011 16:59:02 2.9 C 5.26 g/m*3 2.9 C 0 km/h
206 09-01-2011 17:11:02 3.2 C 5.36 g/m*3 3.2 C 0 km/h
207 09-01-2011 17:23:02 2.9 C 5.26 g/m*3 2.9 C 0 km/h
208 09-01-2011 17:35:02 2.7 C 5.19 g/m*3 2.7 C 0 km/h
209 09-01-2011 17:47:02 2.6 C 5.21 g/m*3 2.6 C 0 km/h
210 09-01-2011 17:59:02 2.5 C 5.17 g/m*3 2.5 C 0 km/h
211 09-01-2011 18:11:02 2.2 C 5.07 g/m*3 2.2 C 0 km/h
212 09-01-2011 18:23:03 1.9 C 5.02 g/m*3 1.9 C 0 km/h
213 09-01-2011 18:35:02 1.7 C 4.95 g/m*3 1.7 C 0 km/h
214 09-01-2011 18:47:02 1.5 C 4.89 g/m*3 1.5 C 0 km/h
215 09-01-2011 18:59:02 1.5 C 4.89 g/m*3 1.5 C 0 km/h
216 09-01-2011 19:11:02 1.6 C 4.97 g/m*3 1.6 C 0 km/h
217 09-01-2011 19:23:02 1.7 C 5.01 g/m*3 1.7 C 0 km/h
218 09-01-2011 19:35:02 2 C 5.11 g/m*3 2 C 0 km/h
219 09-01-2011 19:47:02 1.9 C 5.08 g/m*3 1.9 C 0 km/h
220 09-01-2011 19:59:02 1.8 C 5.04 g/m*3 1.8 C 0 km/h
221 09-01-2011 20:11:02 1.4 C 4.91 g/m*3 1.4 C 0 km/h
222 09-01-2011 20:23:02 1.5 C 4.94 g/m*3 1.5 C 0 km/h
223 09-01-2011 20:35:02 1.5 C 4.94 g/m*3 1.5 C 0 km/h
224 09-01-2011 20:47:02 1 C 4.72 g/m*3 1 C 0 km/h
225 09-01-2011 20:59:02 0.8 C 4.71 g/m*3 0.8 C 0 km/h
Sensor: Nr:Datum:Temp:Abs-Feuchte:Windchill:Wind:
Aussen-T/F 226 09-01-2011 21:11:02 0.5 C 4.61 g/m*3 0.5 C 0 km/h
227 09-01-2011 21:23:02 0.3 C 4.55 g/m*3 0.3 C 0 km/h
228 09-01-2011 21:35:01 0.9 C 4.79 g/m*3 0.9 C 0 km/h
229 09-01-2011 21:47:02 0.8 C 4.71 g/m*3 0.8 C 0 km/h
230 09-01-2011 21:59:02 0.7 C 4.73 g/m*3 0.7 C 0 km/h
231 09-01-2011 22:11:02 0.2 C 4.52 g/m*3 0.2 C 0 km/h
232 09-01-2011 22:23:02 0.3 C 4.6 g/m*3 0.3 C 0 km/h
233 09-01-2011 22:36:02 0 C 4.46 g/m*3 0 C 0 km/h
234 09-01-2011 22:48:02 -0.2 C 4.4 g/m*3 -0.2 C 0 km/h
235 09-01-2011 23:00:02 0.1 C 4.54 g/m*3 0.1 C 0 km/h
236 09-01-2011 23:12:02 0.2 C 4.57 g/m*3 0.2 C 0 km/h
237 09-01-2011 23:24:02 -0.3 C 4.41 g/m*3 -0.3 C 0 km/h
238 09-01-2011 23:36:02 0.1 C 4.54 g/m*3 0.1 C 0 km/h
239 09-01-2011 23:48:02 0 C 4.51 g/m*3 0 C 0 km/h
240 10-01-2011 00:00:02 0.3 C 4.6 g/m*3 0.3 C 0 km/h
241 10-01-2011 00:12:02 0.6 C 4.7 g/m*3 0.6 C 0 km/h
242 10-01-2011 00:24:02 0.3 C 4.6 g/m*3 0.3 C 0 km/h
243 10-01-2011 00:36:02 -0.2 C 4.44 g/m*3 -0.2 C 0 km/h
244 10-01-2011 00:48:02 -0.2 C 4.44 g/m*3 -0.2 C 0 km/h
245 10-01-2011 01:00:02 0.2 C 4.57 g/m*3 0.2 C 0 km/h
246 10-01-2011 01:12:02 0.3 C 4.6 g/m*3 0.3 C 0 km/h
247 10-01-2011 01:24:02 0.4 C 4.63 g/m*3 0.4 C 0 km/h
248 10-01-2011 01:36:02 0.3 C 4.65 g/m*3 0.3 C 0 km/h
249 10-01-2011 01:48:02 0.2 C 4.62 g/m*3 0.2 C 0 km/h
250 10-01-2011 02:00:02 0.2 C 4.62 g/m*3 0.2 C 0 km/h
Sensor: Nr:Datum:Temp:Abs-Feuchte:Windchill:Wind:
Aussen-T/F 251 10-01-2011 02:12:02 0.1 C 4.54 g/m*3 0.1 C 0 km/h
252 10-01-2011 02:24:02 0 C 4.55 g/m*3 0 C 0 km/h
253 10-01-2011 02:36:03 -0.1 C 4.52 g/m*3 -0.1 C 0 km/h
254 10-01-2011 02:48:03 -0.1 C 4.52 g/m*3 -0.1 C 0 km/h
255 10-01-2011 03:00:03 0 C 4.55 g/m*3 0 C 0 km/h
256 10-01-2011 03:12:03 0.2 C 4.62 g/m*3 0.2 C 0 km/h
257 10-01-2011 03:24:03 0.3 C 4.65 g/m*3 0.3 C 0 km/h
258 10-01-2011 03:36:03 0.2 C 4.62 g/m*3 0.2 C 0 km/h
259 10-01-2011 03:48:03 0.3 C 4.65 g/m*3 0.3 C 0 km/h
260 10-01-2011 04:00:03 0.4 C 4.68 g/m*3 0.4 C 0 km/h
261 10-01-2011 04:12:03 0.4 C 4.68 g/m*3 0.4 C 0 km/h
262 10-01-2011 04:24:03 0.4 C 4.68 g/m*3 0.4 C 0 km/h
263 10-01-2011 04:36:03 0.4 C 4.68 g/m*3 0.4 C 0 km/h
264 10-01-2011 04:48:03 0.3 C 4.65 g/m*3 0.3 C 0 km/h
265 10-01-2011 05:00:03 0.3 C 4.65 g/m*3 0.3 C 0 km/h
266 10-01-2011 05:12:03 0.3 C 4.65 g/m*3 0.3 C 0 km/h
267 10-01-2011 05:24:03 0.2 C 4.62 g/m*3 0.2 C 0 km/h
268 10-01-2011 05:36:03 0.3 C 4.65 g/m*3 0.3 C 0 km/h
269 10-01-2011 05:48:03 0.2 C 4.57 g/m*3 0.2 C 0 km/h
270 10-01-2011 06:00:03 0.2 C 4.57 g/m*3 0.2 C 0 km/h
271 10-01-2011 06:12:03 0.2 C 4.57 g/m*3 0.2 C 0 km/h
272 10-01-2011 06:24:03 0.2 C 4.57 g/m*3 0.2 C 0 km/h
273 10-01-2011 06:36:04 0.2 C 4.57 g/m*3 0.2 C 0 km/h
274 10-01-2011 06:48:04 0.2 C 4.57 g/m*3 0.2 C 0 km/h
275 10-01-2011 07:00:04 0.2 C 4.57 g/m*3 0.2 C 0 km/h
Sensor: Nr:Datum:Temp:Abs-Feuchte:Windchill:Wind:
Aussen-T/F 276 10-01-2011 07:12:01 -0.1 C 4.47 g/m*3 -0.1 C 0 km/h
277 10-01-2011 07:24:02 0 C 4.51 g/m*3 0 C 0 km/h
278 10-01-2011 07:36:01 0.1 C 4.54 g/m*3 0.1 C 0 km/h
279 10-01-2011 07:48:02 0.3 C 4.6 g/m*3 0.3 C 0 km/h
280 10-01-2011 08:00:02 0.3 C 4.6 g/m*3 0.3 C 0 km/h
281 10-01-2011 08:12:01 0.2 C 4.52 g/m*3 0.2 C 0 km/h
282 10-01-2011 08:24:02 0.2 C 4.52 g/m*3 0.2 C 0 km/h
283 10-01-2011 08:36:01 0.1 C 4.44 g/m*3 0.1 C 0 km/h
284 10-01-2011 08:48:03 0.1 C 4.44 g/m*3 0.1 C 0 km/h
285 10-01-2011 09:00:03 0.2 C 4.47 g/m*3 0.2 C 0 km/h
286 10-01-2011 09:12:02 0.3 C 4.45 g/m*3 0.3 C 0 km/h
287 10-01-2011 09:24:02 0.4 C 4.48 g/m*3 0.4 C 0 km/h
288 10-01-2011 09:36:02 0.3 C 4.4 g/m*3 0.3 C 0 km/h
289 10-01-2011 09:48:02 0.4 C 4.43 g/m*3 0.4 C 0 km/h
290 10-01-2011 10:00:02 0.5 C 4.41 g/m*3 0.5 C 0 km/h
291 10-01-2011 10:12:02 0.2 C 4.27 g/m*3 0.2 C 0 km/h
292 10-01-2011 10:24:02 0.5 C 4.36 g/m*3 0.5 C 0 km/h
293 10-01-2011 10:36:02 0.7 C 4.37 g/m*3 0.7 C 0 km/h
294 10-01-2011 10:48:02 0.8 C 4.4 g/m*3 0.8 C 0 km/h
295 10-01-2011 11:00:02 1.1 C 4.39 g/m*3 1.1 C 0 km/h
296 10-01-2011 11:12:01 0.5 C 4.16 g/m*3 0.5 C 0 km/h
297 10-01-2011 11:24:01 0.8 C 4.2 g/m*3 0.8 C 0 km/h
298 10-01-2011 11:36:02 0.8 C 4.15 g/m*3 0.8 C 0 km/h
299 10-01-2011 11:48:02 1.2 C 4.21 g/m*3 1.2 C 0 km/h
300 10-01-2011 12:00:02 1.3 C 4.24 g/m*3 1.3 C 0 km/h
Sensor: Nr:Datum:Temp:Abs-Feuchte:Windchill:Wind:
Aussen-T/F 301 10-01-2011 12:12:02 1.7 C 4.3 g/m*3 1.7 C 0 km/h
302 10-01-2011 12:24:01 2.1 C 4.36 g/m*3 2.1 C 0 km/h
303 10-01-2011 12:36:02 2 C 4.33 g/m*3 2 C 0 km/h
304 10-01-2011 12:48:02 1.8 C 4.28 g/m*3 1.8 C 0 km/h
305 10-01-2011 13:00:02 2.1 C 4.36 g/m*3 2.1 C 0 km/h
306 10-01-2011 13:12:02 2 C 4.33 g/m*3 2 C 0 km/h
307 10-01-2011 13:24:01 2 C 4.39 g/m*3 2 C 0 km/h
308 10-01-2011 13:36:02 2.2 C 4.45 g/m*3 2.2 C 0 km/h
309 10-01-2011 13:48:02 2.2 C 4.39 g/m*3 2.2 C 0 km/h
310 10-01-2011 14:00:02 2.4 C 4.45 g/m*3 2.4 C 0 km/h
311 10-01-2011 14:12:02 2.5 C 4.48 g/m*3 2.5 C 0 km/h
312 10-01-2011 14:24:02 2.3 C 4.48 g/m*3 2.3 C 0 km/h
313 10-01-2011 14:36:02 2.1 C 4.36 g/m*3 2.1 C 0 km/h
314 10-01-2011 14:48:02 2 C 4.33 g/m*3 2 C 0 km/h
315 10-01-2011 15:00:02 2 C 4.33 g/m*3 2 C 0 km/h
316 10-01-2011 15:12:02 2.1 C 4.36 g/m*3 2.1 C 0 km/h
317 10-01-2011 15:24:02 2.1 C 4.36 g/m*3 2.1 C 0 km/h
318 10-01-2011 15:36:01 2.2 C 4.39 g/m*3 2.2 C 0 km/h
319 10-01-2011 15:48:02 2.1 C 4.36 g/m*3 2.1 C 0 km/h
320 10-01-2011 16:00:02 2.1 C 4.36 g/m*3 2.1 C 0 km/h
321 10-01-2011 16:12:01 2 C 4.33 g/m*3 2 C 0 km/h
322 10-01-2011 16:24:02 1.9 C 4.36 g/m*3 1.9 C 0 km/h
323 10-01-2011 16:36:02 1.8 C 4.33 g/m*3 1.8 C 0 km/h
324 10-01-2011 16:48:02 1.5 C 4.24 g/m*3 1.5 C 0 km/h
325 10-01-2011 17:00:02 1.2 C 4.21 g/m*3 1.2 C 0 km/h
Sensor: Nr:Datum:Temp:Abs-Feuchte:Windchill:Wind:
Aussen-T/F 326 10-01-2011 17:12:02 0.8 C 4.2 g/m*3 0.8 C 0 km/h
327 10-01-2011 17:24:02 0.7 C 4.22 g/m*3 0.7 C 0 km/h
328 10-01-2011 17:36:02 0.7 C 4.27 g/m*3 0.7 C 0 km/h
329 10-01-2011 17:48:02 0.8 C 4.3 g/m*3 0.8 C 0 km/h
330 10-01-2011 18:00:02 0.7 C 4.27 g/m*3 0.7 C 0 km/h
331 10-01-2011 18:12:01 0.4 C 4.18 g/m*3 0.4 C 0 km/h
332 10-01-2011 18:24:02 0.1 C 4.1 g/m*3 0.1 C 0 km/h
333 10-01-2011 18:36:02 -0.1 C 4.09 g/m*3 -0.1 C 0 km/h
334 10-01-2011 18:48:02 0 C 4.17 g/m*3 0 C 0 km/h
335 10-01-2011 19:00:02 0.1 C 4.24 g/m*3 0.1 C 0 km/h
336 10-01-2011 19:12:02 0.2 C 4.27 g/m*3 0.2 C 0 km/h
337 10-01-2011 19:24:02 0.2 C 4.32 g/m*3 0.2 C 0 km/h
338 10-01-2011 19:36:02 0.4 C 4.38 g/m*3 0.4 C 0 km/h
339 10-01-2011 19:48:02 0.4 C 4.38 g/m*3 0.4 C 0 km/h
340 10-01-2011 20:00:02 0.4 C 4.38 g/m*3 0.4 C 0 km/h
341 10-01-2011 20:12:02 0.6 C 4.39 g/m*3 0.6 C 0 km/h
342 10-01-2011 20:24:01 0.8 C 4.4 g/m*3 0.8 C 0 km/h
343 10-01-2011 20:36:02 0.8 C 4.3 g/m*3 0.8 C 0 km/h
344 10-01-2011 20:48:02 0.8 C 4.25 g/m*3 0.8 C 0 km/h
345 10-01-2011 21:00:02 0.7 C 4.12 g/m*3 0.7 C 0 km/h
346 10-01-2011 21:12:02 0.6 C 4.04 g/m*3 0.6 C 0 km/h
347 10-01-2011 21:24:01 0.5 C 4.01 g/m*3 0.5 C 0 km/h
348 10-01-2011 21:36:02 0.5 C 4.01 g/m*3 0.5 C 0 km/h
349 10-01-2011 21:48:02 0.5 C 4.01 g/m*3 0.5 C 0 km/h
350 10-01-2011 22:00:02 0.5 C 4.06 g/m*3 0.5 C 0 km/h
Sensor: Nr:Datum:Temp:Abs-Feuchte:Windchill:Wind:
Aussen-T/F 351 10-01-2011 22:12:02 0.5 C 4.06 g/m*3 0.5 C 0 km/h
352 10-01-2011 22:25:04 0.5 C 4.06 g/m*3 0.5 C 0 km/h
353 10-01-2011 22:37:04 0.5 C 4.06 g/m*3 0.5 C 0 km/h
354 10-01-2011 22:49:04 0.5 C 4.01 g/m*3 0.5 C 0 km/h
355 10-01-2011 23:01:04 0.5 C 4.01 g/m*3 0.5 C 0 km/h
356 10-01-2011 23:13:04 0.5 C 4.01 g/m*3 0.5 C 0 km/h
357 10-01-2011 23:25:04 0.5 C 4.01 g/m*3 0.5 C 0 km/h
358 10-01-2011 23:37:04 0.6 C 4.09 g/m*3 0.6 C 0 km/h
359 10-01-2011 23:49:04 0.6 C 4.09 g/m*3 0.6 C 0 km/h
360 11-01-2011 00:01:04 0.6 C 4.04 g/m*3 0.6 C 0 km/h
361 11-01-2011 00:13:05 0.5 C 3.96 g/m*3 0.5 C 0 km/h
362 11-01-2011 00:25:05 0.3 C 3.96 g/m*3 0.3 C 0 km/h
363 11-01-2011 00:37:05 -0.2 C 3.82 g/m*3 -0.2 C 0 km/h
364 11-01-2011 00:49:05 -0.4 C 3.86 g/m*3 -0.4 C 0 km/h
365 11-01-2011 01:01:05 -0.2 C 4.01 g/m*3 -0.2 C 0 km/h
366 11-01-2011 01:13:05 -0.1 C 4.04 g/m*3 -0.1 C 0 km/h
367 11-01-2011 01:25:05 -0.4 C 4.01 g/m*3 -0.4 C 0 km/h
368 11-01-2011 01:37:05 -0.1 C 4.14 g/m*3 -0.1 C 0 km/h
369 11-01-2011 01:49:05 0.2 C 4.22 g/m*3 0.2 C 0 km/h
370 11-01-2011 02:01:05 0.6 C 4.29 g/m*3 0.6 C 0 km/h
371 11-01-2011 02:13:05 0.7 C 4.22 g/m*3 0.7 C 0 km/h
372 11-01-2011 02:25:05 0.8 C 4.2 g/m*3 0.8 C 0 km/h
373 11-01-2011 02:37:05 1 C 4.1 g/m*3 1 C 0 km/h
374 11-01-2011 02:49:05 0.8 C 4.04 g/m*3 0.8 C 0 km/h
375 11-01-2011 03:01:05 0.8 C 4.04 g/m*3 0.8 C 0 km/h
Sensor: Nr:Datum:Temp:Abs-Feuchte:Windchill:Wind:
Aussen-T/F 376 11-01-2011 03:13:05 0.8 C 4.04 g/m*3 0.8 C 0 km/h
377 11-01-2011 03:25:05 0.6 C 4.04 g/m*3 0.6 C 0 km/h
378 11-01-2011 03:37:05 0.8 C 4.1 g/m*3 0.8 C 0 km/h
379 11-01-2011 03:49:05 0.6 C 4.04 g/m*3 0.6 C 0 km/h
380 11-01-2011 04:01:05 0.3 C 3.96 g/m*3 0.3 C 0 km/h
381 11-01-2011 04:13:06 0.2 C 3.98 g/m*3 0.2 C 0 km/h
382 11-01-2011 04:25:06 0.1 C 4 g/m*3 0.1 C 0 km/h
383 11-01-2011 04:37:06 0.6 C 4.14 g/m*3 0.6 C 0 km/h
384 11-01-2011 04:49:06 0.9 C 4.18 g/m*3 0.9 C 0 km/h
385 11-01-2011 05:01:06 1.1 C 4.13 g/m*3 1.1 C 0 km/h
386 11-01-2011 05:13:06 1.1 C 4.13 g/m*3 1.1 C 0 km/h
387 11-01-2011 05:25:06 1.1 C 4.13 g/m*3 1.1 C 0 km/h
388 11-01-2011 05:37:06 1.1 C 4.13 g/m*3 1.1 C 0 km/h
389 11-01-2011 05:49:06 1.1 C 4.13 g/m*3 1.1 C 0 km/h
390 11-01-2011 06:01:06 1.2 C 4.16 g/m*3 1.2 C 0 km/h
391 11-01-2011 06:13:06 1.2 C 4.16 g/m*3 1.2 C 0 km/h
392 11-01-2011 06:25:06 1.3 C 4.19 g/m*3 1.3 C 0 km/h
393 11-01-2011 06:37:06 1.3 C 4.24 g/m*3 1.3 C 0 km/h
394 11-01-2011 06:49:06 1.3 C 4.24 g/m*3 1.3 C 0 km/h
395 11-01-2011 07:01:06 1.4 C 4.27 g/m*3 1.4 C 0 km/h
396 11-01-2011 07:13:06 1.4 C 4.32 g/m*3 1.4 C 0 km/h
397 11-01-2011 07:25:03 1.4 C 4.32 g/m*3 1.4 C 0 km/h
398 11-01-2011 07:37:03 1.4 C 4.32 g/m*3 1.4 C 0 km/h
399 11-01-2011 07:49:02 1.5 C 4.4 g/m*3 1.5 C 0 km/h
400 11-01-2011 08:01:02 1.5 C 4.4 g/m*3 1.5 C 0 km/h
Sensor: Nr:Datum:Temp:Abs-Feuchte:Windchill:Wind:
Aussen-T/F 401 11-01-2011 08:13:02 1.5 C 4.4 g/m*3 1.5 C 0 km/h
402 11-01-2011 08:25:03 1.5 C 4.46 g/m*3 1.5 C 0 km/h
403 11-01-2011 08:37:02 1.5 C 4.46 g/m*3 1.5 C 0 km/h
404 11-01-2011 08:49:03 1.5 C 4.51 g/m*3 1.5 C 0 km/h
405 11-01-2011 09:01:02 1.6 C 4.54 g/m*3 1.6 C 0 km/h
406 11-01-2011 09:13:02 1.8 C 4.66 g/m*3 1.8 C 0 km/h
407 11-01-2011 09:25:02 2 C 4.67 g/m*3 2 C 0 km/h
408 11-01-2011 09:37:02 2.3 C 4.71 g/m*3 2.3 C 0 km/h
409 11-01-2011 09:49:02 2.6 C 4.75 g/m*3 2.6 C 0 km/h
410 11-01-2011 10:01:02 2.9 C 4.72 g/m*3 2.9 C 0 km/h
411 11-01-2011 10:13:02 3.2 C 4.7 g/m*3 3.2 C 0 km/h
412 11-01-2011 10:25:02 3.2 C 4.58 g/m*3 3.2 C 0 km/h
413 11-01-2011 10:37:02 3.2 C 4.58 g/m*3 3.2 C 0 km/h
414 11-01-2011 10:49:02 2.7 C 4.54 g/m*3 2.7 C 0 km/h
415 11-01-2011 11:01:02 2.5 C 4.6 g/m*3 2.5 C 0 km/h
416 11-01-2011 11:13:02 2.6 C 4.75 g/m*3 2.6 C 0 km/h
417 11-01-2011 11:25:02 2.8 C 4.87 g/m*3 2.8 C 0 km/h
418 11-01-2011 11:37:02 3.7 C 5.17 g/m*3 3.7 C 0 km/h
419 11-01-2011 11:49:02 4.8 C 5.1 g/m*3 4.8 C 0 km/h
420 11-01-2011 12:01:02 5.4 C 4.74 g/m*3 5.4 C 0 km/h
421 11-01-2011 12:13:02 5.7 C 4.63 g/m*3 5.7 C 0 km/h
422 11-01-2011 12:25:02 5.7 C 4.55 g/m*3 5.7 C 0 km/h
423 11-01-2011 12:37:01 5.6 C 4.6 g/m*3 5.6 C 0 km/h
424 11-01-2011 12:49:02 5.1 C 4.58 g/m*3 5.1 C 0 km/h
425 11-01-2011 13:01:01 5.2 C 4.75 g/m*3 5.2 C 0 km/h
Sensor: Nr:Datum:Temp:Abs-Feuchte:Windchill:Wind:
Aussen-T/F 426 11-01-2011 13:13:01 5.1 C 4.72 g/m*3 5.1 C 0 km/h
427 11-01-2011 13:25:01 5.3 C 4.71 g/m*3 5.3 C 0 km/h
428 11-01-2011 13:37:02 5.5 C 4.85 g/m*3 5.5 C 0 km/h
429 11-01-2011 13:49:02 5.4 C 4.74 g/m*3 5.4 C 0 km/h
430 11-01-2011 14:01:02 5.3 C 4.85 g/m*3 5.3 C 0 km/h
431 11-01-2011 14:13:02 5.3 C 4.92 g/m*3 5.3 C 0 km/h
432 11-01-2011 14:25:02 5.3 C 4.85 g/m*3 5.3 C 0 km/h
433 11-01-2011 14:37:02 5.3 C 4.92 g/m*3 5.3 C 0 km/h
434 11-01-2011 14:49:02 5.3 C 4.92 g/m*3 5.3 C 0 km/h
435 11-01-2011 15:01:02 5.3 C 5.06 g/m*3 5.3 C 0 km/h
436 11-01-2011 15:13:02 5.5 C 5.06 g/m*3 5.5 C 0 km/h
437 11-01-2011 15:25:02 5.6 C 5.02 g/m*3 5.6 C 0 km/h
438 11-01-2011 15:37:02 5.3 C 5.06 g/m*3 5.3 C 0 km/h
439 11-01-2011 15:49:01 5.1 C 5.13 g/m*3 5.1 C 0 km/h
440 11-01-2011 16:01:01 4.8 C 5.3 g/m*3 4.8 C 0 km/h
441 11-01-2011 16:13:01 4.6 C 5.43 g/m*3 4.6 C 0 km/h
442 11-01-2011 16:25:02 4.5 C 5.46 g/m*3 4.5 C 0 km/h
443 11-01-2011 16:37:01 4.5 C 5.46 g/m*3 4.5 C 0 km/h
444 11-01-2011 16:49:03 4.5 C 5.46 g/m*3 4.5 C 0 km/h
445 11-01-2011 17:01:02 4.7 C 5.53 g/m*3 4.7 C 0 km/h
446 11-01-2011 17:13:02 4.7 C 5.46 g/m*3 4.7 C 0 km/h
447 11-01-2011 17:25:02 5.2 C 5.44 g/m*3 5.2 C 0 km/h
448 11-01-2011 17:37:02 5.4 C 5.44 g/m*3 5.4 C 0 km/h
449 11-01-2011 17:49:02 5.5 C 5.41 g/m*3 5.5 C 0 km/h
450 11-01-2011 18:01:02 5.3 C 5.41 g/m*3 5.3 C 0 km/h
Sensor: Nr:Datum:Temp:Abs-Feuchte:Windchill:Wind:
Aussen-T/F 451 11-01-2011 18:13:02 5.3 C 5.48 g/m*3 5.3 C 0 km/h
452 11-01-2011 18:25:02 5.4 C 5.51 g/m*3 5.4 C 0 km/h
453 11-01-2011 18:37:02 5.6 C 5.59 g/m*3 5.6 C 0 km/h
454 11-01-2011 18:49:02 5.8 C 5.59 g/m*3 5.8 C 0 km/h
455 11-01-2011 19:01:01 6 C 5.52 g/m*3 6 C 0 km/h
456 11-01-2011 19:13:01 6 C 5.52 g/m*3 6 C 0 km/h
457 11-01-2011 19:25:01 6 C 5.59 g/m*3 6 C 0 km/h
458 11-01-2011 19:37:02 6 C 5.59 g/m*3 6 C 0 km/h
459 11-01-2011 19:49:02 5.9 C 5.62 g/m*3 5.9 C 0 km/h
460 11-01-2011 20:01:02 6 C 5.59 g/m*3 6 C 0 km/h
461 11-01-2011 20:13:02 6.1 C 5.63 g/m*3 6.1 C 0 km/h
462 11-01-2011 20:25:02 6.1 C 5.63 g/m*3 6.1 C 0 km/h
463 11-01-2011 20:37:02 6.2 C 5.59 g/m*3 6.2 C 0 km/h
464 11-01-2011 20:49:02 6.3 C 5.55 g/m*3 6.3 C 0 km/h
465 11-01-2011 21:01:02 6.3 C 5.63 g/m*3 6.3 C 0 km/h
466 11-01-2011 21:13:02 6.3 C 5.63 g/m*3 6.3 C 0 km/h
467 11-01-2011 21:25:02 6.1 C 5.63 g/m*3 6.1 C 0 km/h
468 11-01-2011 21:37:02 6.1 C 5.7 g/m*3 6.1 C 0 km/h
469 11-01-2011 21:50:03 6 C 5.73 g/m*3 6 C 0 km/h
470 11-01-2011 22:02:03 5.8 C 5.8 g/m*3 5.8 C 0 km/h
471 11-01-2011 22:14:03 5.9 C 5.91 g/m*3 5.9 C 0 km/h
472 11-01-2011 22:26:03 5.9 C 5.91 g/m*3 5.9 C 0 km/h
473 11-01-2011 22:38:03 6.3 C 6 g/m*3 6.3 C 0 km/h
474 11-01-2011 22:50:03 5.9 C 5.91 g/m*3 5.9 C 0 km/h
475 11-01-2011 23:02:03 5.9 C 6.06 g/m*3 5.9 C 0 km/h
Sensor: Nr:Datum:Temp:Abs-Feuchte:Windchill:Wind:
Aussen-T/F 476 11-01-2011 23:14:03 5.9 C 6.06 g/m*3 5.9 C 0 km/h
477 11-01-2011 23:26:03 6 C 6.02 g/m*3 6 C 0 km/h
478 11-01-2011 23:38:03 6.1 C 5.99 g/m*3 6.1 C 0 km/h
479 11-01-2011 23:50:03 6.1 C 5.92 g/m*3 6.1 C 0 km/h
480 12-01-2011 00:02:03 6.3 C 5.77 g/m*3 6.3 C 0 km/h
481 12-01-2011 00:14:03 6.5 C 5.62 g/m*3 6.5 C 0 km/h
482 12-01-2011 00:26:03 6.2 C 5.37 g/m*3 6.2 C 0 km/h
483 12-01-2011 00:38:03 5.9 C 5.26 g/m*3 5.9 C 0 km/h
484 12-01-2011 00:50:04 5.8 C 5.3 g/m*3 5.8 C 0 km/h
485 12-01-2011 01:02:04 5.9 C 5.34 g/m*3 5.9 C 0 km/h
486 12-01-2011 01:14:04 5.8 C 5.3 g/m*3 5.8 C 0 km/h
487 12-01-2011 01:26:04 6 C 5.23 g/m*3 6 C 0 km/h
488 12-01-2011 01:38:04 6 C 5.15 g/m*3 6 C 0 km/h
489 12-01-2011 01:50:04 6.1 C 5.11 g/m*3 6.1 C 0 km/h
490 12-01-2011 02:02:04 6 C 5.08 g/m*3 6 C 0 km/h
491 12-01-2011 02:14:04 6 C 5.08 g/m*3 6 C 0 km/h
492 12-01-2011 02:26:04 5.9 C 5.12 g/m*3 5.9 C 0 km/h
493 12-01-2011 02:38:04 5.9 C 5.05 g/m*3 5.9 C 0 km/h
494 12-01-2011 02:50:04 5.7 C 4.98 g/m*3 5.7 C 0 km/h
495 12-01-2011 03:02:04 5.5 C 4.99 g/m*3 5.5 C 0 km/h
496 12-01-2011 03:14:04 5 C 5.1 g/m*3 5 C 0 km/h
497 12-01-2011 03:26:04 4.9 C 5.27 g/m*3 4.9 C 0 km/h
498 12-01-2011 03:38:04 4.7 C 5.26 g/m*3 4.7 C 0 km/h
499 12-01-2011 03:50:04 4.5 C 5.26 g/m*3 4.5 C 0 km/h
500 12-01-2011 04:02:04 4.3 C 5.32 g/m*3 4.3 C 0 km/h
Sensor: Nr:Datum:Temp:Abs-Feuchte:Windchill:Wind:
Aussen-T/F 501 12-01-2011 04:14:04 4.3 C 5.32 g/m*3 4.3 C 0 km/h
502 12-01-2011 04:26:04 4.1 C 5.31 g/m*3 4.1 C 0 km/h
503 12-01-2011 04:38:04 3.9 C 5.37 g/m*3 3.9 C 0 km/h
504 12-01-2011 04:50:05 3.8 C 5.4 g/m*3 3.8 C 0 km/h
505 12-01-2011 05:02:05 3.8 C 5.33 g/m*3 3.8 C 0 km/h
506 12-01-2011 05:14:05 3.8 C 5.27 g/m*3 3.8 C 0 km/h
507 12-01-2011 05:26:05 3.7 C 5.23 g/m*3 3.7 C 0 km/h
508 12-01-2011 05:38:05 3.7 C 5.17 g/m*3 3.7 C 0 km/h
509 12-01-2011 05:50:05 3.8 C 5.21 g/m*3 3.8 C 0 km/h
510 12-01-2011 06:02:05 3.6 C 5.14 g/m*3 3.6 C 0 km/h
511 12-01-2011 06:14:05 3.5 C 5.16 g/m*3 3.5 C 0 km/h
512 12-01-2011 06:26:05 3.6 C 5.14 g/m*3 3.6 C 0 km/h
513 12-01-2011 06:38:05 3.6 C 5.14 g/m*3 3.6 C 0 km/h
514 12-01-2011 06:50:05 3.5 C 5.04 g/m*3 3.5 C 0 km/h
515 12-01-2011 07:02:02 3.5 C 5.04 g/m*3 3.5 C 0 km/h
516 12-01-2011 07:14:02 3.6 C 5.08 g/m*3 3.6 C 0 km/h
517 12-01-2011 07:26:02 3.3 C 4.97 g/m*3 3.3 C 0 km/h
518 12-01-2011 07:38:02 3.1 C 4.97 g/m*3 3.1 C 0 km/h
519 12-01-2011 07:50:01 3.1 C 5.03 g/m*3 3.1 C 0 km/h
520 12-01-2011 08:02:01 3 C 4.99 g/m*3 3 C 0 km/h
521 12-01-2011 08:14:01 2.8 C 4.93 g/m*3 2.8 C 0 km/h
522 12-01-2011 08:26:01 3.1 C 5.03 g/m*3 3.1 C 0 km/h
523 12-01-2011 08:38:01 3 C 4.99 g/m*3 3 C 0 km/h
524 12-01-2011 08:50:01 3 C 4.99 g/m*3 3 C 0 km/h
525 12-01-2011 09:02:01 3.5 C 5.16 g/m*3 3.5 C 0 km/h
Sensor: Nr:Datum:Temp:Abs-Feuchte:Windchill:Wind:
Aussen-T/F 526 12-01-2011 09:14:01 3.5 C 5.04 g/m*3 3.5 C 0 km/h
527 12-01-2011 09:26:02 3.7 C 5.11 g/m*3 3.7 C 0 km/h
528 12-01-2011 09:38:01 4 C 4.96 g/m*3 4 C 0 km/h
529 12-01-2011 09:50:02 4.5 C 4.93 g/m*3 4.5 C 0 km/h
530 12-01-2011 10:02:02 4.6 C 4.83 g/m*3 4.6 C 0 km/h
531 12-01-2011 10:14:02 4.7 C 4.93 g/m*3 4.7 C 0 km/h
532 12-01-2011 10:26:01 4.9 C 4.93 g/m*3 4.9 C 0 km/h
533 12-01-2011 10:38:02 4.9 C 4.86 g/m*3 4.9 C 0 km/h
534 12-01-2011 10:50:02 5 C 4.82 g/m*3 5 C 0 km/h
535 12-01-2011 11:02:02 5.1 C 4.86 g/m*3 5.1 C 0 km/h
536 12-01-2011 11:14:02 5.2 C 4.82 g/m*3 5.2 C 0 km/h
537 12-01-2011 11:26:01 5.4 C 4.81 g/m*3 5.4 C 0 km/h
538 12-01-2011 11:38:02 5.3 C 4.85 g/m*3 5.3 C 0 km/h
539 12-01-2011 11:50:01 5.3 C 4.92 g/m*3 5.3 C 0 km/h
540 12-01-2011 12:02:02 5.2 C 4.96 g/m*3 5.2 C 0 km/h
541 12-01-2011 12:14:02 5 C 5.03 g/m*3 5 C 0 km/h
542 12-01-2011 12:26:02 4.8 C 5.1 g/m*3 4.8 C 0 km/h
543 12-01-2011 12:38:02 4.7 C 5.13 g/m*3 4.7 C 0 km/h
544 12-01-2011 12:50:02 4.7 C 5.2 g/m*3 4.7 C 0 km/h
545 12-01-2011 13:02:02 4.7 C 5.2 g/m*3 4.7 C 0 km/h
546 12-01-2011 13:14:03 4.9 C 5.33 g/m*3 4.9 C 0 km/h
547 12-01-2011 13:26:01 5 C 5.37 g/m*3 5 C 0 km/h
548 12-01-2011 13:38:46 5 C 5.44 g/m*3 5 C 0 km/h
549 12-01-2011 13:50:02 4.9 C 5.54 g/m*3 4.9 C 0 km/h
550 12-01-2011 14:02:02 5 C 5.5 g/m*3 5 C 0 km/h
Sensor: Nr:Datum:Temp:Abs-Feuchte:Windchill:Wind:
Aussen-T/F 551 12-01-2011 14:14:02 5.1 C 5.47 g/m*3 5.1 C 0 km/h
552 12-01-2011 14:26:02 5.1 C 5.54 g/m*3 5.1 C 0 km/h
553 12-01-2011 14:38:02 5.1 C 5.54 g/m*3 5.1 C 0 km/h
554 12-01-2011 14:50:02 5.3 C 5.54 g/m*3 5.3 C 0 km/h
555 12-01-2011 15:02:01 5.6 C 5.51 g/m*3 5.6 C 0 km/h
556 12-01-2011 15:14:01 5.4 C 5.44 g/m*3 5.4 C 0 km/h
557 12-01-2011 15:26:02 5.2 C 5.44 g/m*3 5.2 C 0 km/h
558 12-01-2011 15:38:02 5.3 C 5.54 g/m*3 5.3 C 0 km/h
559 12-01-2011 15:50:02 5.6 C 5.59 g/m*3 5.6 C 0 km/h
560 12-01-2011 16:02:02 6 C 5.44 g/m*3 6 C 0 km/h
561 12-01-2011 16:14:02 5.9 C 5.48 g/m*3 5.9 C 0 km/h
562 12-01-2011 16:26:02 6 C 5.44 g/m*3 6 C 0 km/h
563 12-01-2011 16:38:02 6.1 C 5.48 g/m*3 6.1 C 0 km/h
564 12-01-2011 16:50:02 6.2 C 5.52 g/m*3 6.2 C 0 km/h
565 12-01-2011 17:02:02 6.2 C 5.52 g/m*3 6.2 C 0 km/h
566 12-01-2011 17:14:02 6.3 C 5.55 g/m*3 6.3 C 0 km/h
567 12-01-2011 17:26:02 6.4 C 5.59 g/m*3 6.4 C 0 km/h
568 12-01-2011 17:38:02 6 C 5.59 g/m*3 6 C 0 km/h
569 12-01-2011 17:50:01 6.1 C 5.77 g/m*3 6.1 C 0 km/h
570 12-01-2011 18:02:02 6.3 C 5.77 g/m*3 6.3 C 0 km/h
571 12-01-2011 18:14:02 6 C 5.81 g/m*3 6 C 0 km/h
572 12-01-2011 18:26:01 6 C 5.88 g/m*3 6 C 0 km/h
573 12-01-2011 18:38:01 6.2 C 6.03 g/m*3 6.2 C 0 km/h
574 12-01-2011 18:50:01 6.1 C 6.06 g/m*3 6.1 C 0 km/h
575 12-01-2011 19:02:01 6.1 C 6.06 g/m*3 6.1 C 0 km/h
Sensor: Nr:Datum:Temp:Abs-Feuchte:Windchill:Wind:
Aussen-T/F 576 12-01-2011 19:14:01 6 C 6.1 g/m*3 6 C 0 km/h
577 12-01-2011 19:26:02 6.3 C 6.22 g/m*3 6.3 C 0 km/h
578 12-01-2011 19:38:01 6.5 C 6.22 g/m*3 6.5 C 0 km/h
579 12-01-2011 19:50:02 6.6 C 6.27 g/m*3 6.6 C 0 km/h
580 12-01-2011 20:02:02 6.9 C 6.31 g/m*3 6.9 C 0 km/h
581 12-01-2011 20:14:02 6.8 C 6.27 g/m*3 6.8 C 0 km/h
582 12-01-2011 20:26:02 7 C 6.28 g/m*3 7 C 0 km/h
583 12-01-2011 20:38:02 7.1 C 6.24 g/m*3 7.1 C 0 km/h
584 12-01-2011 20:50:02 7.1 C 6.32 g/m*3 7.1 C 0 km/h
585 12-01-2011 21:02:01 7.1 C 6.4 g/m*3 7.1 C 0 km/h
586 12-01-2011 21:14:01 7.2 C 6.44 g/m*3 7.2 C 0 km/h
587 12-01-2011 21:26:02 7.5 C 6.64 g/m*3 7.5 C 0 km/h
588 12-01-2011 21:38:02 7.5 C 6.56 g/m*3 7.5 C 0 km/h
589 12-01-2011 21:50:02 7.4 C 6.52 g/m*3 7.4 C 0 km/h
590 12-01-2011 22:02:02 7.7 C 6.73 g/m*3 7.7 C 0 km/h
591 12-01-2011 22:14:02 7.7 C 6.65 g/m*3 7.7 C 0 km/h
592 12-01-2011 22:26:02 7.9 C 6.74 g/m*3 7.9 C 0 km/h
593 12-01-2011 22:38:02 8.2 C 6.7 g/m*3 8.2 C 0 km/h
594 12-01-2011 22:50:02 8.3 C 6.74 g/m*3 8.3 C 0 km/h
595 12-01-2011 23:02:02 8.5 C 6.74 g/m*3 8.5 C 0 km/h
596 12-01-2011 23:14:02 8.7 C 6.83 g/m*3 8.7 C 0 km/h
597 12-01-2011 23:26:01 8.8 C 6.88 g/m*3 8.8 C 0 km/h
598 12-01-2011 23:38:02 8.9 C 6.83 g/m*3 8.9 C 0 km/h
599 12-01-2011 23:50:02 8.9 C 6.83 g/m*3 8.9 C 0 km/h
600 13-01-2011 00:02:02 9 C 6.88 g/m*3 9 C 0 km/h
Sensor: Nr:Datum:Temp:Abs-Feuchte:Windchill:Wind:
Aussen-T/F 601 13-01-2011 00:14:02 9.3 C 6.92 g/m*3 9.3 C 0 km/h
602 13-01-2011 00:26:02 9.3 C 7.01 g/m*3 9.3 C 0 km/h
603 13-01-2011 00:38:02 9.4 C 7.05 g/m*3 9.4 C 0 km/h
604 13-01-2011 00:50:01 9.5 C 7.1 g/m*3 9.5 C 0 km/h
605 13-01-2011 01:02:02 9.7 C 7.19 g/m*3 9.7 C 0 km/h
606 13-01-2011 01:14:02 9.9 C 7.28 g/m*3 9.9 C 0 km/h
607 13-01-2011 01:26:02 10 C 7.24 g/m*3 10 C 0 km/h
608 13-01-2011 01:38:02 10.1 C 7.28 g/m*3 10.1 C 0 km/h
609 13-01-2011 01:50:02 10.2 C 7.33 g/m*3 10.2 C 0 km/h
610 13-01-2011 02:02:02 10.5 C 7.37 g/m*3 10.5 C 0 km/h
611 13-01-2011 02:14:02 10.7 C 7.56 g/m*3 10.7 C 0 km/h
612 13-01-2011 02:26:02 10.7 C 7.56 g/m*3 10.7 C 0 km/h
613 13-01-2011 02:38:01 10.7 C 7.66 g/m*3 10.7 C 0 km/h
614 13-01-2011 02:50:02 10.4 C 7.61 g/m*3 10.4 C 0 km/h
615 13-01-2011 03:02:02 10.4 C 7.71 g/m*3 10.4 C 0 km/h
616 13-01-2011 03:14:01 10.3 C 7.85 g/m*3 10.3 C 0 km/h
617 13-01-2011 03:26:01 10.3 C 7.85 g/m*3 10.3 C 0 km/h
618 13-01-2011 03:38:02 10.3 C 7.85 g/m*3 10.3 C 0 km/h
619 13-01-2011 03:50:02 10.3 C 7.95 g/m*3 10.3 C 0 km/h
620 13-01-2011 04:02:01 10.5 C 8.05 g/m*3 10.5 C 0 km/h
621 13-01-2011 04:14:01 10.6 C 8.1 g/m*3 10.6 C 0 km/h
622 13-01-2011 04:26:02 10.9 C 8.16 g/m*3 10.9 C 0 km/h
623 13-01-2011 04:38:01 10.7 C 7.96 g/m*3 10.7 C 0 km/h
624 13-01-2011 04:50:02 10.8 C 8.01 g/m*3 10.8 C 0 km/h
625 13-01-2011 05:02:01 11 C 8.01 g/m*3 11 C 0 km/h
Sensor: Nr:Datum:Temp:Abs-Feuchte:Windchill:Wind:
Aussen-T/F 626 13-01-2011 05:14:01 11.1 C 8.16 g/m*3 11.1 C 0 km/h
627 13-01-2011 05:26:01 10.7 C 8.05 g/m*3 10.7 C 0 km/h
628 13-01-2011 05:38:02 10.8 C 8.2 g/m*3 10.8 C 0 km/h
629 13-01-2011 05:50:01 10.6 C 8.2 g/m*3 10.6 C 0 km/h
630 13-01-2011 06:02:02 10.7 C 8.25 g/m*3 10.7 C 0 km/h
631 13-01-2011 06:14:02 10.5 C 8.24 g/m*3 10.5 C 0 km/h
632 13-01-2011 06:26:01 10.6 C 8.3 g/m*3 10.6 C 0 km/h
633 13-01-2011 06:38:02 10.6 C 8.39 g/m*3 10.6 C 0 km/h
634 13-01-2011 06:50:01 10.5 C 8.34 g/m*3 10.5 C 0 km/h
635 13-01-2011 07:02:01 10.6 C 8.39 g/m*3 10.6 C 0 km/h
636 13-01-2011 07:14:02 10.5 C 8.44 g/m*3 10.5 C 0 km/h
637 13-01-2011 07:26:01 10.7 C 8.55 g/m*3 10.7 C 0 km/h
638 13-01-2011 07:38:01 10.7 C 8.45 g/m*3 10.7 C 0 km/h
639 13-01-2011 07:50:01 10.8 C 8.5 g/m*3 10.8 C 0 km/h
640 13-01-2011 08:02:01 10.9 C 8.55 g/m*3 10.9 C 0 km/h
641 13-01-2011 08:14:01 10.8 C 8.5 g/m*3 10.8 C 0 km/h
642 13-01-2011 08:26:02 10.8 C 8.4 g/m*3 10.8 C 0 km/h
643 13-01-2011 08:38:01 10.8 C 8.4 g/m*3 10.8 C 0 km/h
644 13-01-2011 08:50:02 10.9 C 8.45 g/m*3 10.9 C 0 km/h
645 13-01-2011 09:02:01 10.9 C 8.45 g/m*3 10.9 C 0 km/h
646 13-01-2011 09:14:01 11.2 C 8.51 g/m*3 11.2 C 0 km/h
647 13-01-2011 09:26:02 11.4 C 8.52 g/m*3 11.4 C 0 km/h
648 13-01-2011 09:38:01 11.4 C 8.42 g/m*3 11.4 C 0 km/h
649 13-01-2011 09:50:02 11.4 C 8.31 g/m*3 11.4 C 0 km/h
650 13-01-2011 10:02:01 11.5 C 8.37 g/m*3 11.5 C 0 km/h
Sensor: Nr:Datum:Temp:Abs-Feuchte:Windchill:Wind:
Aussen-T/F 651 13-01-2011 10:14:01 11.9 C 8.47 g/m*3 11.9 C 0 km/h
652 13-01-2011 10:26:01 11.8 C 8.31 g/m*3 11.8 C 0 km/h
653 13-01-2011 10:38:02 12.2 C 8.2 g/m*3 12.2 C 0 km/h
654 13-01-2011 10:50:01 12.3 C 8.25 g/m*3 12.3 C 0 km/h
655 13-01-2011 11:02:02 12.5 C 8.36 g/m*3 12.5 C 0 km/h
656 13-01-2011 11:14:02 12.3 C 8.25 g/m*3 12.3 C 0 km/h
657 13-01-2011 11:26:01 12.6 C 8.19 g/m*3 12.6 C 0 km/h
658 13-01-2011 11:38:01 12.5 C 8.25 g/m*3 12.5 C 0 km/h
659 13-01-2011 11:50:01 12.7 C 8.24 g/m*3 12.7 C 0 km/h
660 13-01-2011 12:02:01 12.6 C 8.3 g/m*3 12.6 C 0 km/h
661 13-01-2011 12:14:02 12.5 C 8.25 g/m*3 12.5 C 0 km/h
662 13-01-2011 12:26:01 12.4 C 8.3 g/m*3 12.4 C 0 km/h
663 13-01-2011 12:38:01 12.4 C 8.41 g/m*3 12.4 C 0 km/h
664 13-01-2011 12:50:01 12.4 C 8.3 g/m*3 12.4 C 0 km/h
665 13-01-2011 13:02:01 12.2 C 8.42 g/m*3 12.2 C 0 km/h
666 13-01-2011 13:14:01 12.2 C 8.42 g/m*3 12.2 C 0 km/h
667 13-01-2011 13:26:02 12.7 C 8.46 g/m*3 12.7 C 0 km/h
668 13-01-2011 13:38:01 12.7 C 8.35 g/m*3 12.7 C 0 km/h
669 13-01-2011 13:50:02 12.9 C 8.34 g/m*3 12.9 C 0 km/h
670 13-01-2011 14:02:01 13 C 8.28 g/m*3 13 C 0 km/h
671 13-01-2011 14:14:01 13 C 8.28 g/m*3 13 C 0 km/h
672 13-01-2011 14:26:02 13.2 C 8.27 g/m*3 13.2 C 0 km/h
673 13-01-2011 14:38:01 13.4 C 8.37 g/m*3 13.4 C 0 km/h
674 13-01-2011 14:50:01 13.3 C 8.2 g/m*3 13.3 C 0 km/h
675 13-01-2011 15:02:01 13.1 C 8.22 g/m*3 13.1 C 0 km/h
Sensor: Nr:Datum:Temp:Abs-Feuchte:Windchill:Wind:
Aussen-T/F 676 13-01-2011 15:14:01 13.2 C 8.27 g/m*3 13.2 C 0 km/h
677 13-01-2011 15:26:01 13.1 C 8.22 g/m*3 13.1 C 0 km/h
678 13-01-2011 15:38:02 13 C 8.28 g/m*3 13 C 0 km/h
679 13-01-2011 15:50:01 12.9 C 8.34 g/m*3 12.9 C 0 km/h
680 13-01-2011 16:02:02 12.9 C 8.45 g/m*3 12.9 C 0 km/h
681 13-01-2011 16:14:02 12.9 C 8.45 g/m*3 12.9 C 0 km/h
682 13-01-2011 16:26:01 13 C 8.39 g/m*3 13 C 0 km/h
683 13-01-2011 16:38:01 12.8 C 8.51 g/m*3 12.8 C 0 km/h
684 13-01-2011 16:50:01 12.9 C 8.57 g/m*3 12.9 C 0 km/h
685 13-01-2011 17:02:01 12.8 C 8.51 g/m*3 12.8 C 0 km/h
686 13-01-2011 17:14:02 12.9 C 8.57 g/m*3 12.9 C 0 km/h
687 13-01-2011 17:26:01 12.7 C 8.46 g/m*3 12.7 C 0 km/h
688 13-01-2011 17:38:01 12.9 C 8.57 g/m*3 12.9 C 0 km/h
689 13-01-2011 17:50:01 13 C 8.39 g/m*3 13 C 0 km/h
690 13-01-2011 18:02:01 13 C 8.39 g/m*3 13 C 0 km/h
691 13-01-2011 18:14:01 12.9 C 8.45 g/m*3 12.9 C 0 km/h
692 13-01-2011 18:26:02 12.7 C 8.35 g/m*3 12.7 C 0 km/h
693 13-01-2011 18:38:01 12.8 C 8.51 g/m*3 12.8 C 0 km/h
694 13-01-2011 18:50:02 12.8 C 8.4 g/m*3 12.8 C 0 km/h
695 13-01-2011 19:02:01 12.9 C 8.57 g/m*3 12.9 C 0 km/h
696 13-01-2011 19:14:01 12.8 C 8.51 g/m*3 12.8 C 0 km/h
697 13-01-2011 19:26:02 12.8 C 8.51 g/m*3 12.8 C 0 km/h
698 13-01-2011 19:38:02 12.8 C 8.51 g/m*3 12.8 C 0 km/h
699 13-01-2011 19:50:01 12.8 C 8.4 g/m*3 12.8 C 0 km/h
700 13-01-2011 20:02:02 12.8 C 8.51 g/m*3 12.8 C 0 km/h
Sensor: Nr:Datum:Temp:Abs-Feuchte:Windchill:Wind:
Aussen-T/F 701 13-01-2011 20:14:02 12.7 C 8.46 g/m*3 12.7 C 0 km/h
702 13-01-2011 20:26:01 12.6 C 8.52 g/m*3 12.6 C 0 km/h
703 13-01-2011 20:38:01 12.7 C 8.57 g/m*3 12.7 C 0 km/h
704 13-01-2011 20:50:01 12.7 C 8.57 g/m*3 12.7 C 0 km/h
705 13-01-2011 21:02:01 12.7 C 8.46 g/m*3 12.7 C 0 km/h
706 13-01-2011 21:14:01 12.7 C 8.46 g/m*3 12.7 C 0 km/h
707 13-01-2011 21:26:01 12.8 C 8.51 g/m*3 12.8 C 0 km/h
708 13-01-2011 21:38:01 13 C 8.39 g/m*3 13 C 0 km/h
709 13-01-2011 21:50:01 12.9 C 8.45 g/m*3 12.9 C 0 km/h
710 13-01-2011 22:02:01 12.9 C 8.45 g/m*3 12.9 C 0 km/h
711 13-01-2011 22:14:01 12.8 C 8.4 g/m*3 12.8 C 0 km/h
712 13-01-2011 22:26:01 12.8 C 8.29 g/m*3 12.8 C 0 km/h
713 13-01-2011 22:38:02 12.8 C 8.29 g/m*3 12.8 C 0 km/h
714 13-01-2011 22:50:01 12.8 C 8.29 g/m*3 12.8 C 0 km/h
715 13-01-2011 23:02:02 12.9 C 8.34 g/m*3 12.9 C 0 km/h
716 13-01-2011 23:14:02 12.7 C 8.24 g/m*3 12.7 C 0 km/h
717 13-01-2011 23:26:01 12.7 C 8.24 g/m*3 12.7 C 0 km/h
718 13-01-2011 23:38:02 12.7 C 8.24 g/m*3 12.7 C 0 km/h
719 13-01-2011 23:50:01 12.7 C 8.24 g/m*3 12.7 C 0 km/h
720 14-01-2011 00:02:02 12.7 C 8.24 g/m*3 12.7 C 0 km/h
721 14-01-2011 00:14:02 12.5 C 8.14 g/m*3 12.5 C 0 km/h
722 14-01-2011 00:26:01 12.4 C 8.09 g/m*3 12.4 C 0 km/h
723 14-01-2011 00:38:02 12.5 C 8.14 g/m*3 12.5 C 0 km/h
724 14-01-2011 00:50:01 12.7 C 8.13 g/m*3 12.7 C 0 km/h
725 14-01-2011 01:02:02 12.5 C 8.14 g/m*3 12.5 C 0 km/h
Sensor: Nr:Datum:Temp:Abs-Feuchte:Windchill:Wind:
Aussen-T/F 726 14-01-2011 01:14:02 12.4 C 8.09 g/m*3 12.4 C 0 km/h
727 14-01-2011 01:26:01 12.5 C 8.14 g/m*3 12.5 C 0 km/h
728 14-01-2011 01:38:02 12.6 C 8.08 g/m*3 12.6 C 0 km/h
729 14-01-2011 01:50:01 12.5 C 8.03 g/m*3 12.5 C 0 km/h
730 14-01-2011 02:02:02 12.4 C 7.98 g/m*3 12.4 C 0 km/h
731 14-01-2011 02:14:02 12.3 C 7.93 g/m*3 12.3 C 0 km/h
732 14-01-2011 02:26:01 12.3 C 7.93 g/m*3 12.3 C 0 km/h
733 14-01-2011 02:38:01 12.3 C 7.93 g/m*3 12.3 C 0 km/h
734 14-01-2011 02:50:01 12.4 C 7.98 g/m*3 12.4 C 0 km/h
735 14-01-2011 03:02:01 12.2 C 7.88 g/m*3 12.2 C 0 km/h
736 14-01-2011 03:14:01 12.4 C 7.98 g/m*3 12.4 C 0 km/h
737 14-01-2011 03:26:02 12.2 C 7.77 g/m*3 12.2 C 0 km/h
738 14-01-2011 03:38:01 12.2 C 7.77 g/m*3 12.2 C 0 km/h
739 14-01-2011 03:50:01 12.2 C 7.77 g/m*3 12.2 C 0 km/h
740 14-01-2011 04:02:02 12.2 C 7.77 g/m*3 12.2 C 0 km/h
741 14-01-2011 04:14:02 12.2 C 7.88 g/m*3 12.2 C 0 km/h
742 14-01-2011 04:26:01 12.4 C 7.87 g/m*3 12.4 C 0 km/h
743 14-01-2011 04:38:01 12.2 C 7.77 g/m*3 12.2 C 0 km/h
744 14-01-2011 04:50:01 12.2 C 7.77 g/m*3 12.2 C 0 km/h
745 14-01-2011 05:02:01 12.1 C 7.83 g/m*3 12.1 C 0 km/h
746 14-01-2011 05:14:01 12.1 C 7.83 g/m*3 12.1 C 0 km/h
747 14-01-2011 05:26:01 12.3 C 7.82 g/m*3 12.3 C 0 km/h
748 14-01-2011 05:38:01 12.5 C 7.81 g/m*3 12.5 C 0 km/h
749 14-01-2011 05:50:01 12.3 C 7.71 g/m*3 12.3 C 0 km/h
750 14-01-2011 06:02:01 12.4 C 7.65 g/m*3 12.4 C 0 km/h
Sensor: Nr:Datum:Temp:Abs-Feuchte:Windchill:Wind:
Aussen-T/F 751 14-01-2011 06:14:01 12.6 C 7.63 g/m*3 12.6 C 0 km/h
752 14-01-2011 06:26:02 12.5 C 7.59 g/m*3 12.5 C 0 km/h
753 14-01-2011 06:38:01 12.7 C 7.57 g/m*3 12.7 C 0 km/h
754 14-01-2011 06:50:02 12.6 C 7.63 g/m*3 12.6 C 0 km/h
755 14-01-2011 07:02:01 12.3 C 7.6 g/m*3 12.3 C 0 km/h
756 14-01-2011 07:14:01 12.3 C 7.49 g/m*3 12.3 C 0 km/h
757 14-01-2011 07:26:02 12.4 C 7.43 g/m*3 12.4 C 0 km/h
758 14-01-2011 07:38:01 12.2 C 7.12 g/m*3 12.2 C 0 km/h
759 14-01-2011 07:50:01 12.3 C 7.17 g/m*3 12.3 C 0 km/h
760 14-01-2011 08:02:01 12.1 C 7.08 g/m*3 12.1 C 0 km/h
761 14-01-2011 08:14:01 12.2 C 7.01 g/m*3 12.2 C 0 km/h
762 14-01-2011 08:26:02 11.7 C 7.01 g/m*3 11.7 C 0 km/h
763 14-01-2011 08:38:01 11.2 C 6.89 g/m*3 11.2 C 0 km/h
764 14-01-2011 08:50:02 11.1 C 6.95 g/m*3 11.1 C 0 km/h
765 14-01-2011 09:02:01 11.2 C 6.99 g/m*3 11.2 C 0 km/h
766 14-01-2011 09:14:01 11.4 C 6.77 g/m*3 11.4 C 0 km/h
767 14-01-2011 09:26:01 11.6 C 6.86 g/m*3 11.6 C 0 km/h
768 14-01-2011 09:38:01 11.6 C 6.76 g/m*3 11.6 C 0 km/h
769 14-01-2011 09:50:01 11.5 C 6.82 g/m*3 11.5 C 0 km/h
770 14-01-2011 10:02:01 11.8 C 6.84 g/m*3 11.8 C 0 km/h
771 14-01-2011 10:14:01 11.9 C 6.78 g/m*3 11.9 C 0 km/h
772 14-01-2011 10:26:01 11.9 C 6.78 g/m*3 11.9 C 0 km/h
773 14-01-2011 10:38:02 11.3 C 6.53 g/m*3 11.3 C 0 km/h
774 14-01-2011 10:50:01 11.8 C 6.63 g/m*3 11.8 C 0 km/h
775 14-01-2011 11:02:02 12 C 6.61 g/m*3 12 C 0 km/h
Sensor: Nr:Datum:Temp:Abs-Feuchte:Windchill:Wind:
Aussen-T/F 776 14-01-2011 11:14:02 11.9 C 6.67 g/m*3 11.9 C 0 km/h
777 14-01-2011 11:26:01 12 C 6.61 g/m*3 12 C 0 km/h
778 14-01-2011 11:38:02 12 C 6.61 g/m*3 12 C 0 km/h
779 14-01-2011 11:50:01 12.2 C 6.58 g/m*3 12.2 C 0 km/h
780 14-01-2011 12:02:01 12 C 6.5 g/m*3 12 C 0 km/h
781 14-01-2011 12:14:02 12.2 C 6.58 g/m*3 12.2 C 0 km/h
782 14-01-2011 12:26:01 12.3 C 6.52 g/m*3 12.3 C 0 km/h
783 14-01-2011 12:38:01 12.2 C 6.58 g/m*3 12.2 C 0 km/h
784 14-01-2011 12:50:01 12 C 6.5 g/m*3 12 C 0 km/h
785 14-01-2011 13:02:01 12 C 6.61 g/m*3 12 C 0 km/h
786 14-01-2011 13:14:01 12 C 6.71 g/m*3 12 C 0 km/h
787 14-01-2011 13:26:02 12 C 6.61 g/m*3 12 C 0 km/h
788 14-01-2011 13:38:01 12 C 6.61 g/m*3 12 C 0 km/h
789 14-01-2011 13:50:02 12 C 6.61 g/m*3 12 C 0 km/h
790 14-01-2011 14:02:01 11.8 C 6.74 g/m*3 11.8 C 0 km/h
791 14-01-2011 14:14:01 11.7 C 6.8 g/m*3 11.7 C 0 km/h
792 14-01-2011 14:26:02 11.6 C 6.86 g/m*3 11.6 C 0 km/h
793 14-01-2011 14:38:01 11.5 C 6.82 g/m*3 11.5 C 0 km/h
794 14-01-2011 14:50:02 11.6 C 6.86 g/m*3 11.6 C 0 km/h
795 14-01-2011 15:02:01 11.8 C 6.74 g/m*3 11.8 C 0 km/h
796 14-01-2011 15:14:01 12 C 6.61 g/m*3 12 C 0 km/h
797 14-01-2011 15:26:01 12.2 C 6.47 g/m*3 12.2 C 0 km/h
798 14-01-2011 15:38:02 12.4 C 6.45 g/m*3 12.4 C 0 km/h
799 14-01-2011 15:50:01 12.2 C 6.47 g/m*3 12.2 C 0 km/h
800 14-01-2011 16:02:02 12.2 C 6.37 g/m*3 12.2 C 0 km/h
Sensor: Nr:Datum:Temp:Abs-Feuchte:Windchill:Wind:
Aussen-T/F 801 14-01-2011 16:14:02 12.1 C 6.43 g/m*3 12.1 C 0 km/h
802 14-01-2011 16:26:01 12 C 6.39 g/m*3 12 C 0 km/h
803 14-01-2011 16:38:01 11.9 C 6.46 g/m*3 11.9 C 0 km/h
804 14-01-2011 16:50:01 11.6 C 6.34 g/m*3 11.6 C 0 km/h
805 14-01-2011 17:02:01 11.6 C 6.34 g/m*3 11.6 C 0 km/h
806 14-01-2011 17:14:01 11.6 C 6.44 g/m*3 11.6 C 0 km/h
807 14-01-2011 17:26:01 11.5 C 6.3 g/m*3 11.5 C 0 km/h
808 14-01-2011 17:38:01 11.5 C 6.3 g/m*3 11.5 C 0 km/h
809 14-01-2011 17:50:01 11.4 C 6.26 g/m*3 11.4 C 0 km/h
810 14-01-2011 18:02:01 11.2 C 6.28 g/m*3 11.2 C 0 km/h
811 14-01-2011 18:14:01 11 C 6.31 g/m*3 11 C 0 km/h
812 14-01-2011 18:26:02 11.3 C 6.32 g/m*3 11.3 C 0 km/h
813 14-01-2011 18:38:01 10.8 C 6.33 g/m*3 10.8 C 0 km/h
814 14-01-2011 18:50:02 10.9 C 6.37 g/m*3 10.9 C 0 km/h
815 14-01-2011 19:02:01 10.8 C 6.33 g/m*3 10.8 C 0 km/h
816 14-01-2011 19:14:01 10.7 C 6.29 g/m*3 10.7 C 0 km/h
817 14-01-2011 19:26:01 11 C 6.21 g/m*3 11 C 0 km/h
818 14-01-2011 19:38:01 11.3 C 6.22 g/m*3 11.3 C 0 km/h
819 14-01-2011 19:50:01 11.9 C 6.14 g/m*3 11.9 C 0 km/h
820 14-01-2011 20:02:01 11.9 C 6.04 g/m*3 11.9 C 0 km/h
821 14-01-2011 20:14:01 11.8 C 6.1 g/m*3 11.8 C 0 km/h
822 14-01-2011 20:26:01 11.8 C 6.1 g/m*3 11.8 C 0 km/h
823 14-01-2011 20:38:02 11.5 C 6.09 g/m*3 11.5 C 0 km/h
824 14-01-2011 20:50:01 11.4 C 6.06 g/m*3 11.4 C 0 km/h
825 14-01-2011 21:02:02 11.4 C 6.06 g/m*3 11.4 C 0 km/h
Sensor: Nr:Datum:Temp:Abs-Feuchte:Windchill:Wind:
Aussen-T/F 826 14-01-2011 21:14:02 11.4 C 5.95 g/m*3 11.4 C 0 km/h
827 14-01-2011 21:26:01 11.4 C 6.06 g/m*3 11.4 C 0 km/h
828 14-01-2011 21:38:01 11.4 C 5.95 g/m*3 11.4 C 0 km/h
829 14-01-2011 21:50:01 11.4 C 6.06 g/m*3 11.4 C 0 km/h
830 14-01-2011 22:04:03 11.2 C 6.08 g/m*3 11.2 C 0 km/h
831 14-01-2011 22:16:03 11.1 C 6.14 g/m*3 11.1 C 0 km/h
832 14-01-2011 22:28:03 11.1 C 6.25 g/m*3 11.1 C 0 km/h
833 14-01-2011 22:40:03 10.6 C 6.34 g/m*3 10.6 C 0 km/h
834 14-01-2011 22:52:03 10.1 C 6.43 g/m*3 10.1 C 0 km/h
835 14-01-2011 23:04:03 10 C 6.58 g/m*3 10 C 0 km/h
836 14-01-2011 23:16:03 9.5 C 6.74 g/m*3 9.5 C 0 km/h
837 14-01-2011 23:28:03 9.1 C 6.92 g/m*3 9.1 C 0 km/h
838 14-01-2011 23:40:03 9.1 C 6.92 g/m*3 9.1 C 0 km/h
839 14-01-2011 23:52:03 8.5 C 6.66 g/m*3 8.5 C 0 km/h

Legende:
   Min
   Max


Maximal/Minimal-Werte vom 08.01.2011 - 14.01.2011

Sensor Min Max Avg
Temp
(Aussen-T/F)
-0.4 °C
11-01-2011  00:49:05
14.7 °C
08-01-2011  14:22:02
6.98 °C
Abs-Feuchte
(Aussen-T/F)
3.82 g/m*3
11-01-2011  00:37:05
8.57 g/m*3
13-01-2011  16:50:01
6.09 g/m*3
Windchill
(Aussen-T/F)
-0.4 C
11-01-2011  00:49:05
14.7 C
08-01-2011  14:22:02
6.97 C

Die Daten stammen von einer Davis Vantage Pro 2 Wetter-Station und werden unter Linux mit der Software wview2wettercgi und aufbereitet. Alle Angaben erfolgen ohne Gewähr für ihre Vollständigkeit oder Richtigkeit.
Kontakt: Rainer Krienke krienke@uni-koblenz.de . Meine Webseiten an der Uni Koblenz oder privat.
Version: $Revision: 0.78 $